This is the latest recevied weather packets stored in our database for station/object G4GVZ-1. If no packets are shown the sender has not sent any weather packets the latest 10 day(s).
| Time | Temp. | Humidity | Pressure | Rain* | Wind** | Luminosity | Snow |
|---|---|---|---|---|---|---|---|
| 1777396203 | 9.44° C | 82% | 1026.1 hPa | 0 mm | - | - | - |
| 1777396202 | 9.44° C | 84% | 1026.3 hPa | 0 mm | - | - | - |
| 1777395652 | 14.44° C | 58% | 1024 hPa | 0 mm | - | - | - |
| 1777394752 | 13.89° C | 61% | 1024 hPa | 0 mm | - | - | - |
| 1777393852 | 13.89° C | 62% | 1024.1 hPa | 0 mm | - | - | - |
| 1777392950 | 13.89° C | 63% | 1024.1 hPa | 0 mm | - | - | - |
| 1777392050 | 13.89° C | 65% | 1024.2 hPa | 0 mm | - | - | - |
| 1777391151 | 13.33° C | 65% | 1024.4 hPa | 0 mm | - | - | - |
| 1777390251 | 13.33° C | 67% | 1024.5 hPa | 0 mm | - | - | - |
| 1777389353 | 12.78° C | 67% | 1024.6 hPa | 0 mm | - | - | - |
| 1777388452 | 12.22° C | 70% | 1024.9 hPa | 0 mm | - | - | - |
| 1777387548 | 12.22° C | 70% | 1024.9 hPa | 0 mm | - | - | - |
| 1777386648 | 11.67° C | 73% | 1025.2 hPa | 0 mm | - | - | - |
| 1777385748 | 11.67° C | 74% | 1025.3 hPa | 0 mm | - | - | - |
| 1777384848 | 12.22° C | 72% | 1025.4 hPa | 0 mm | - | - | - |
| 1777383947 | 11.67° C | 72% | 1025.5 hPa | 0 mm | - | - | - |
| 1777383047 | 11.67° C | 76% | 1025.5 hPa | 0 mm | - | - | - |
| 1777382149 | 11.11° C | 77% | 1025.7 hPa | 0 mm | - | - | - |
| 1777381249 | 10.56° C | 78% | 1026 hPa | 0 mm | - | - | - |
| 1777380349 | 10.56° C | 78% | 1026 hPa | 0 mm | - | - | - |
| 1777379449 | 9.44° C | 82% | 1026.1 hPa | 0 mm | - | - | - |
| 1777378548 | 9.44° C | 84% | 1026.3 hPa | 0 mm | - | - | - |
| 1777378452 | 10.56° C | 82% | 1024.3 hPa | 0 mm | - | - | - |
| 1777378450 | 10.56° C | 82% | 1024.2 hPa | 0 mm | - | - | - |
| 1777378449 | 10.56° C | 82% | 1024.3 hPa | 0 mm | - | - | - |
* Rain latest hour (hover to see other rain measurements)
** Current wind speed in m/s (hover to see current wind gust speed)